ILG weather

New Castle Airport
Wilmington, Delaware, United States

Public forecast

Using degrees Fahrenheit for public forecast. Weather courtesy of forecast.io.

METAR (pilot weather report)

Retrieved 2019/04/26 06:11 UTC (0 seconds ago):

KILG 260611Z AUTO 06004KT 10SM -RA BKN027 BKN060 OVC095 15/11 A2982 RMK AO2 RAB0557 P0000 T01500106

TAF (pilot weather forecast)

Retrieved 2019/04/26 06:22 UTC (0 seconds ago):

TAF KILG 260520Z 2606/2706 10006KT P6SM VCSH OVC030 FM260800 10008KT P6SM -SHRA OVC015 FM261400 16010KT P6SM VCSH SCT015 BKN035 FM261700 17014G22KT P6SM VCSH BKN040 FM262200 22011G19KT 4SM TSRA BR OVC025CB FM270100 28011G22KT P6SM BKN035